sensor_id;sensor_type;location;lat;lon;timestamp;P1;durP1;ratioP1;P2;durP2;ratioP2
4517;SDS011;2271;49.464;11.070;2023-04-24T00:01:27;2.97;;;1.52;;
4517;SDS011;2271;49.464;11.070;2023-04-24T00:03:54;2.00;;;1.50;;
4517;SDS011;2271;49.464;11.070;2023-04-24T00:06:24;4.05;;;1.67;;
4517;SDS011;2271;49.464;11.070;2023-04-24T00:08:58;2.72;;;1.23;;
4517;SDS011;2271;49.464;11.070;2023-04-24T00:11:27;2.40;;;1.33;;
4517;SDS011;2271;49.464;11.070;2023-04-24T00:13:53;2.35;;;1.58;;
4517;SDS011;2271;49.464;11.070;2023-04-24T00:16:19;2.35;;;1.10;;
4517;SDS011;2271;49.464;11.070;2023-04-24T00:18:45;1.90;;;1.20;;
4517;SDS011;2271;49.464;11.070;2023-04-24T00:21:12;1.48;;;1.30;;
4517;SDS011;2271;49.464;11.070;2023-04-24T00:23:38;4.35;;;1.95;;
4517;SDS011;2271;49.464;11.070;2023-04-24T00:26:04;1.52;;;1.33;;
4517;SDS011;2271;49.464;11.070;2023-04-24T00:28:30;2.35;;;1.17;;
4517;SDS011;2271;49.464;11.070;2023-04-24T00:30:55;1.95;;;1.10;;
4517;SDS011;2271;49.464;11.070;2023-04-24T00:33:21;1.67;;;1.42;;
4517;SDS011;2271;49.464;11.070;2023-04-24T00:35:46;1.40;;;1.20;;
4517;SDS011;2271;49.464;11.070;2023-04-24T00:38:12;2.30;;;1.40;;
4517;SDS011;2271;49.464;11.070;2023-04-24T00:40:38;1.63;;;1.52;;
4517;SDS011;2271;49.464;11.070;2023-04-24T00:43:04;2.03;;;1.27;;
4517;SDS011;2271;49.464;11.070;2023-04-24T00:45:30;2.33;;;1.40;;
4517;SDS011;2271;49.464;11.070;2023-04-24T00:47:56;2.20;;;1.70;;
4517;SDS011;2271;49.464;11.070;2023-04-24T00:50:23;3.47;;;1.90;;
4517;SDS011;2271;49.464;11.070;2023-04-24T00:52:50;3.65;;;1.70;;
4517;SDS011;2271;49.464;11.070;2023-04-24T00:55:16;2.78;;;1.35;;
4517;SDS011;2271;49.464;11.070;2023-04-24T00:57:42;4.28;;;1.50;;
4517;SDS011;2271;49.464;11.070;2023-04-24T01:00:09;3.45;;;1.75;;
4517;SDS011;2271;49.464;11.070;2023-04-24T01:02:39;2.35;;;1.67;;
4517;SDS011;2271;49.464;11.070;2023-04-24T01:05:08;1.92;;;1.30;;
4517;SDS011;2271;49.464;11.070;2023-04-24T01:07:34;4.72;;;1.45;;
4517;SDS011;2271;49.464;11.070;2023-04-24T01:10:00;1.77;;;1.00;;
4517;SDS011;2271;49.464;11.070;2023-04-24T01:12:26;1.20;;;1.10;;
4517;SDS011;2271;49.464;11.070;2023-04-24T01:14:52;2.60;;;1.35;;
4517;SDS011;2271;49.464;11.070;2023-04-24T01:17:17;1.05;;;0.95;;
4517;SDS011;2271;49.464;11.070;2023-04-24T01:19:43;0.90;;;0.90;;
4517;SDS011;2271;49.464;11.070;2023-04-24T01:22:13;2.83;;;0.90;;
4517;SDS011;2271;49.464;11.070;2023-04-24T01:24:39;2.45;;;1.20;;
4517;SDS011;2271;49.464;11.070;2023-04-24T01:27:06;1.13;;;0.90;;
4517;SDS011;2271;49.464;11.070;2023-04-24T01:29:32;1.85;;;1.23;;
4517;SDS011;2271;49.464;11.070;2023-04-24T01:31:58;1.40;;;0.90;;
4517;SDS011;2271;49.464;11.070;2023-04-24T01:34:25;1.13;;;0.98;;
4517;SDS011;2271;49.464;11.070;2023-04-24T01:36:51;0.85;;;0.68;;
4517;SDS011;2271;49.464;11.070;2023-04-24T01:39:16;1.00;;;0.90;;
4517;SDS011;2271;49.464;11.070;2023-04-24T01:41:42;1.92;;;0.90;;
4517;SDS011;2271;49.464;11.070;2023-04-24T01:44:08;1.27;;;0.82;;
4517;SDS011;2271;49.464;11.070;2023-04-24T01:46:33;1.02;;;0.68;;
4517;SDS011;2271;49.464;11.070;2023-04-24T01:49:01;0.90;;;0.90;;
4517;SDS011;2271;49.464;11.070;2023-04-24T01:51:27;0.60;;;0.60;;
4517;SDS011;2271;49.464;11.070;2023-04-24T01:53:53;0.93;;;0.70;;
4517;SDS011;2271;49.464;11.070;2023-04-24T01:56:19;1.25;;;0.80;;
4517;SDS011;2271;49.464;11.070;2023-04-24T01:58:46;1.10;;;0.80;;
4517;SDS011;2271;49.464;11.070;2023-04-24T02:01:19;0.80;;;0.80;;
4517;SDS011;2271;49.464;11.070;2023-04-24T02:03:45;0.75;;;0.52;;
4517;SDS011;2271;49.464;11.070;2023-04-24T02:06:11;3.50;;;0.82;;
4517;SDS011;2271;49.464;11.070;2023-04-24T02:08:37;2.15;;;0.77;;
4517;SDS011;2271;49.464;11.070;2023-04-24T02:11:03;0.73;;;0.60;;
4517;SDS011;2271;49.464;11.070;2023-04-24T02:13:28;2.05;;;0.95;;
4517;SDS011;2271;49.464;11.070;2023-04-24T02:15:54;1.48;;;0.73;;
4517;SDS011;2271;49.464;11.070;2023-04-24T02:18:20;0.70;;;0.70;;
4517;SDS011;2271;49.464;11.070;2023-04-24T02:20:47;0.63;;;0.63;;
4517;SDS011;2271;49.464;11.070;2023-04-24T02:23:13;1.55;;;0.95;;
4517;SDS011;2271;49.464;11.070;2023-04-24T02:25:39;0.80;;;0.70;;
4517;SDS011;2271;49.464;11.070;2023-04-24T02:28:05;0.60;;;0.60;;
4517;SDS011;2271;49.464;11.070;2023-04-24T02:30:30;1.02;;;0.82;;
4517;SDS011;2271;49.464;11.070;2023-04-24T02:32:56;2.60;;;0.60;;
4517;SDS011;2271;49.464;11.070;2023-04-24T02:35:21;0.82;;;0.70;;
4517;SDS011;2271;49.464;11.070;2023-04-24T02:37:47;2.45;;;1.08;;
4517;SDS011;2271;49.464;11.070;2023-04-24T02:40:13;0.82;;;0.65;;
4517;SDS011;2271;49.464;11.070;2023-04-24T02:42:38;1.05;;;0.95;;
4517;SDS011;2271;49.464;11.070;2023-04-24T02:45:04;1.42;;;0.82;;
4517;SDS011;2271;49.464;11.070;2023-04-24T02:47:30;0.77;;;0.77;;
4517;SDS011;2271;49.464;11.070;2023-04-24T02:49:56;1.08;;;1.00;;
4517;SDS011;2271;49.464;11.070;2023-04-24T02:52:21;0.90;;;0.70;;
4517;SDS011;2271;49.464;11.070;2023-04-24T02:54:47;3.22;;;0.82;;
4517;SDS011;2271;49.464;11.070;2023-04-24T02:57:12;0.82;;;0.60;;
4517;SDS011;2271;49.464;11.070;2023-04-24T02:59:38;0.55;;;0.52;;
4517;SDS011;2271;49.464;11.070;2023-04-24T03:02:04;2.08;;;0.73;;
4517;SDS011;2271;49.464;11.070;2023-04-24T03:04:30;1.73;;;0.73;;
4517;SDS011;2271;49.464;11.070;2023-04-24T03:06:56;0.73;;;0.70;;
4517;SDS011;2271;49.464;11.070;2023-04-24T03:09:23;0.68;;;0.68;;
4517;SDS011;2271;49.464;11.070;2023-04-24T03:11:49;0.65;;;0.65;;
4517;SDS011;2271;49.464;11.070;2023-04-24T03:14:15;2.97;;;0.73;;
4517;SDS011;2271;49.464;11.070;2023-04-24T03:16:41;1.00;;;0.85;;
4517;SDS011;2271;49.464;11.070;2023-04-24T03:19:07;1.15;;;0.90;;
4517;SDS011;2271;49.464;11.070;2023-04-24T03:21:33;2.58;;;0.80;;
4517;SDS011;2271;49.464;11.070;2023-04-24T03:23:58;1.27;;;1.08;;
4517;SDS011;2271;49.464;11.070;2023-04-24T03:26:24;2.70;;;1.10;;
4517;SDS011;2271;49.464;11.070;2023-04-24T03:28:50;1.50;;;1.00;;
4517;SDS011;2271;49.464;11.070;2023-04-24T03:31:15;1.95;;;0.90;;
4517;SDS011;2271;49.464;11.070;2023-04-24T03:33:41;1.13;;;0.95;;
4517;SDS011;2271;49.464;11.070;2023-04-24T03:36:07;1.60;;;0.70;;
4517;SDS011;2271;49.464;11.070;2023-04-24T03:38:33;3.03;;;1.20;;
4517;SDS011;2271;49.464;11.070;2023-04-24T03:40:59;1.08;;;0.82;;
4517;SDS011;2271;49.464;11.070;2023-04-24T03:43:24;1.00;;;0.82;;
4517;SDS011;2271;49.464;11.070;2023-04-24T03:45:52;2.40;;;1.13;;
4517;SDS011;2271;49.464;11.070;2023-04-24T03:48:17;1.30;;;1.00;;
4517;SDS011;2271;49.464;11.070;2023-04-24T03:50:43;1.35;;;1.08;;
4517;SDS011;2271;49.464;11.070;2023-04-24T03:53:09;1.10;;;1.00;;
4517;SDS011;2271;49.464;11.070;2023-04-24T03:55:35;4.20;;;1.02;;
4517;SDS011;2271;49.464;11.070;2023-04-24T03:58:00;1.25;;;0.90;;
4517;SDS011;2271;49.464;11.070;2023-04-24T04:00:26;2.65;;;1.30;;
4517;SDS011;2271;49.464;11.070;2023-04-24T04:02:52;1.75;;;1.02;;
4517;SDS011;2271;49.464;11.070;2023-04-24T04:05:18;3.22;;;1.23;;
4517;SDS011;2271;49.464;11.070;2023-04-24T04:07:44;6.22;;;1.48;;
4517;SDS011;2271;49.464;11.070;2023-04-24T04:10:10;2.03;;;1.30;;
4517;SDS011;2271;49.464;11.070;2023-04-24T04:12:35;2.58;;;1.50;;
4517;SDS011;2271;49.464;11.070;2023-04-24T04:15:01;1.85;;;1.42;;
4517;SDS011;2271;49.464;11.070;2023-04-24T04:17:27;1.45;;;1.35;;
4517;SDS011;2271;49.464;11.070;2023-04-24T04:19:53;1.27;;;1.17;;
4517;SDS011;2271;49.464;11.070;2023-04-24T04:22:18;2.22;;;1.42;;
4517;SDS011;2271;49.464;11.070;2023-04-24T04:24:44;2.42;;;1.58;;
4517;SDS011;2271;49.464;11.070;2023-04-24T04:27:11;2.13;;;1.25;;
4517;SDS011;2271;49.464;11.070;2023-04-24T04:29:37;2.42;;;1.58;;
4517;SDS011;2271;49.464;11.070;2023-04-24T04:32:03;2.67;;;2.20;;
4517;SDS011;2271;49.464;11.070;2023-04-24T04:34:29;4.78;;;3.05;;
4517;SDS011;2271;49.464;11.070;2023-04-24T04:36:56;4.38;;;2.50;;
4517;SDS011;2271;49.464;11.070;2023-04-24T04:39:24;3.25;;;2.00;;
4517;SDS011;2271;49.464;11.070;2023-04-24T04:41:50;4.07;;;1.92;;
4517;SDS011;2271;49.464;11.070;2023-04-24T04:44:15;3.20;;;1.73;;
4517;SDS011;2271;49.464;11.070;2023-04-24T04:46:41;3.15;;;2.55;;
4517;SDS011;2271;49.464;11.070;2023-04-24T04:49:07;3.28;;;2.35;;
4517;SDS011;2271;49.464;11.070;2023-04-24T04:51:33;3.08;;;1.70;;
4517;SDS011;2271;49.464;11.070;2023-04-24T04:53:59;1.73;;;1.42;;
4517;SDS011;2271;49.464;11.070;2023-04-24T04:56:26;2.53;;;1.67;;
4517;SDS011;2271;49.464;11.070;2023-04-24T04:58:51;2.25;;;1.58;;
4517;SDS011;2271;49.464;11.070;2023-04-24T05:01:17;1.35;;;1.23;;
4517;SDS011;2271;49.464;11.070;2023-04-24T05:03:43;1.60;;;1.50;;
4517;SDS011;2271;49.464;11.070;2023-04-24T05:06:09;3.42;;;2.08;;
4517;SDS011;2271;49.464;11.070;2023-04-24T05:08:35;3.45;;;1.80;;
4517;SDS011;2271;49.464;11.070;2023-04-24T05:11:00;1.85;;;1.48;;
4517;SDS011;2271;49.464;11.070;2023-04-24T05:13:26;2.05;;;1.50;;
4517;SDS011;2271;49.464;11.070;2023-04-24T05:15:52;2.47;;;1.80;;
4517;SDS011;2271;49.464;11.070;2023-04-24T05:18:17;2.47;;;1.95;;
4517;SDS011;2271;49.464;11.070;2023-04-24T05:20:43;2.58;;;1.90;;
4517;SDS011;2271;49.464;11.070;2023-04-24T05:23:09;1.70;;;1.50;;
4517;SDS011;2271;49.464;11.070;2023-04-24T05:25:35;1.63;;;1.45;;
4517;SDS011;2271;49.464;11.070;2023-04-24T05:28:01;1.48;;;1.38;;
4517;SDS011;2271;49.464;11.070;2023-04-24T05:30:27;2.85;;;1.55;;
4517;SDS011;2271;49.464;11.070;2023-04-24T05:32:53;3.58;;;1.65;;
4517;SDS011;2271;49.464;11.070;2023-04-24T05:35:21;2.75;;;1.23;;
4517;SDS011;2271;49.464;11.070;2023-04-24T05:37:47;4.15;;;1.60;;
4517;SDS011;2271;49.464;11.070;2023-04-24T05:40:13;3.05;;;1.70;;
4517;SDS011;2271;49.464;11.070;2023-04-24T05:42:39;2.88;;;1.60;;
4517;SDS011;2271;49.464;11.070;2023-04-24T05:45:05;1.63;;;1.50;;
4517;SDS011;2271;49.464;11.070;2023-04-24T05:47:31;4.25;;;1.85;;
4517;SDS011;2271;49.464;11.070;2023-04-24T05:49:56;2.35;;;1.80;;
4517;SDS011;2271;49.464;11.070;2023-04-24T05:52:22;3.35;;;2.08;;
4517;SDS011;2271;49.464;11.070;2023-04-24T05:54:48;3.22;;;1.48;;
4517;SDS011;2271;49.464;11.070;2023-04-24T05:57:13;3.83;;;1.77;;
4517;SDS011;2271;49.464;11.070;2023-04-24T05:59:40;3.55;;;1.52;;
4517;SDS011;2271;49.464;11.070;2023-04-24T06:02:06;1.73;;;1.23;;
4517;SDS011;2271;49.464;11.070;2023-04-24T06:04:32;2.17;;;1.13;;
4517;SDS011;2271;49.464;11.070;2023-04-24T06:06:58;3.10;;;1.55;;
4517;SDS011;2271;49.464;11.070;2023-04-24T06:09:24;2.67;;;1.58;;
4517;SDS011;2271;49.464;11.070;2023-04-24T06:11:50;4.63;;;1.30;;
4517;SDS011;2271;49.464;11.070;2023-04-24T06:14:19;3.03;;;1.50;;
4517;SDS011;2271;49.464;11.070;2023-04-24T06:16:46;5.35;;;1.48;;
4517;SDS011;2271;49.464;11.070;2023-04-24T06:19:11;3.38;;;1.40;;
4517;SDS011;2271;49.464;11.070;2023-04-24T06:21:37;2.03;;;1.27;;
4517;SDS011;2271;49.464;11.070;2023-04-24T06:24:03;3.95;;;1.85;;
4517;SDS011;2271;49.464;11.070;2023-04-24T06:26:29;3.63;;;1.67;;
4517;SDS011;2271;49.464;11.070;2023-04-24T06:28:55;1.90;;;1.10;;
4517;SDS011;2271;49.464;11.070;2023-04-24T06:31:21;2.53;;;2.33;;
4517;SDS011;2271;49.464;11.070;2023-04-24T06:33:48;3.88;;;1.45;;
4517;SDS011;2271;49.464;11.070;2023-04-24T06:36:14;1.83;;;1.35;;
4517;SDS011;2271;49.464;11.070;2023-04-24T06:38:40;4.00;;;1.25;;
4517;SDS011;2271;49.464;11.070;2023-04-24T06:41:06;1.63;;;1.08;;
4517;SDS011;2271;49.464;11.070;2023-04-24T06:43:32;1.45;;;1.10;;
4517;SDS011;2271;49.464;11.070;2023-04-24T06:45:58;0.98;;;0.88;;
4517;SDS011;2271;49.464;11.070;2023-04-24T06:48:25;2.55;;;1.08;;
4517;SDS011;2271;49.464;11.070;2023-04-24T06:50:51;5.07;;;1.00;;
4517;SDS011;2271;49.464;11.070;2023-04-24T06:53:17;1.25;;;0.95;;
4517;SDS011;2271;49.464;11.070;2023-04-24T06:55:43;1.98;;;0.82;;
4517;SDS011;2271;49.464;11.070;2023-04-24T06:58:13;2.55;;;0.80;;
4517;SDS011;2271;49.464;11.070;2023-04-24T07:00:40;0.70;;;0.70;;
4517;SDS011;2271;49.464;11.070;2023-04-24T07:03:05;2.13;;;1.38;;
4517;SDS011;2271;49.464;11.070;2023-04-24T07:05:31;2.45;;;1.70;;
4517;SDS011;2271;49.464;11.070;2023-04-24T07:07:58;2.78;;;0.93;;
4517;SDS011;2271;49.464;11.070;2023-04-24T07:10:24;2.00;;;1.20;;
4517;SDS011;2271;49.464;11.070;2023-04-24T07:12:52;0.93;;;0.82;;
4517;SDS011;2271;49.464;11.070;2023-04-24T07:15:17;0.70;;;0.70;;
4517;SDS011;2271;49.464;11.070;2023-04-24T07:17:43;2.78;;;1.25;;
4517;SDS011;2271;49.464;11.070;2023-04-24T07:20:10;1.30;;;1.05;;
4517;SDS011;2271;49.464;11.070;2023-04-24T07:22:39;1.27;;;1.10;;
4517;SDS011;2271;49.464;11.070;2023-04-24T07:25:05;0.93;;;0.80;;
4517;SDS011;2271;49.464;11.070;2023-04-24T07:27:31;0.95;;;0.93;;
4517;SDS011;2271;49.464;11.070;2023-04-24T07:29:58;0.98;;;0.85;;
4517;SDS011;2271;49.464;11.070;2023-04-24T07:32:23;3.28;;;0.80;;
4517;SDS011;2271;49.464;11.070;2023-04-24T07:34:49;1.85;;;1.05;;
4517;SDS011;2271;49.464;11.070;2023-04-24T07:37:14;1.10;;;1.00;;
4517;SDS011;2271;49.464;11.070;2023-04-24T07:39:40;1.05;;;0.80;;
4517;SDS011;2271;49.464;11.070;2023-04-24T07:42:06;1.20;;;1.00;;
4517;SDS011;2271;49.464;11.070;2023-04-24T07:44:31;2.13;;;0.90;;
4517;SDS011;2271;49.464;11.070;2023-04-24T07:46:57;0.85;;;0.85;;
4517;SDS011;2271;49.464;11.070;2023-04-24T07:49:23;1.05;;;1.00;;
4517;SDS011;2271;49.464;11.070;2023-04-24T07:51:49;1.77;;;1.27;;
4517;SDS011;2271;49.464;11.070;2023-04-24T07:54:15;1.42;;;1.15;;
4517;SDS011;2271;49.464;11.070;2023-04-24T07:56:41;1.85;;;1.30;;
4517;SDS011;2271;49.464;11.070;2023-04-24T07:59:08;2.10;;;1.23;;
4517;SDS011;2271;49.464;11.070;2023-04-24T08:01:35;3.08;;;1.15;;
4517;SDS011;2271;49.464;11.070;2023-04-24T08:04:01;3.40;;;1.25;;
4517;SDS011;2271;49.464;11.070;2023-04-24T08:06:27;4.18;;;1.30;;
4517;SDS011;2271;49.464;11.070;2023-04-24T08:08:57;1.60;;;1.10;;
4517;SDS011;2271;49.464;11.070;2023-04-24T08:11:23;1.40;;;1.02;;
4517;SDS011;2271;49.464;11.070;2023-04-24T08:13:49;2.15;;;1.20;;
4517;SDS011;2271;49.464;11.070;2023-04-24T08:16:15;2.78;;;1.17;;
4517;SDS011;2271;49.464;11.070;2023-04-24T08:18:41;1.60;;;1.48;;
4517;SDS011;2271;49.464;11.070;2023-04-24T08:21:06;2.03;;;1.42;;
4517;SDS011;2271;49.464;11.070;2023-04-24T08:23:32;1.95;;;1.20;;
4517;SDS011;2271;49.464;11.070;2023-04-24T08:25:58;1.70;;;1.15;;
4517;SDS011;2271;49.464;11.070;2023-04-24T08:28:23;1.45;;;1.02;;
4517;SDS011;2271;49.464;11.070;2023-04-24T08:30:49;1.33;;;1.23;;
4517;SDS011;2271;49.464;11.070;2023-04-24T08:33:19;1.40;;;1.30;;
4517;SDS011;2271;49.464;11.070;2023-04-24T08:35:45;2.33;;;1.33;;
4517;SDS011;2271;49.464;11.070;2023-04-24T08:38:11;1.55;;;1.45;;
4517;SDS011;2271;49.464;11.070;2023-04-24T08:40:37;3.92;;;1.83;;
4517;SDS011;2271;49.464;11.070;2023-04-24T08:43:04;3.28;;;1.63;;
4517;SDS011;2271;49.464;11.070;2023-04-24T08:45:30;3.67;;;1.50;;
4517;SDS011;2271;49.464;11.070;2023-04-24T08:47:57;3.42;;;1.13;;
4517;SDS011;2271;49.464;11.070;2023-04-24T08:50:23;4.72;;;1.73;;
4517;SDS011;2271;49.464;11.070;2023-04-24T08:52:49;2.00;;;1.80;;
4517;SDS011;2271;49.464;11.070;2023-04-24T08:55:18;1.88;;;1.52;;
4517;SDS011;2271;49.464;11.070;2023-04-24T08:57:45;4.25;;;1.90;;
4517;SDS011;2271;49.464;11.070;2023-04-24T09:00:19;2.25;;;1.25;;
4517;SDS011;2271;49.464;11.070;2023-04-24T09:02:45;1.48;;;1.38;;
4517;SDS011;2271;49.464;11.070;2023-04-24T09:05:13;3.13;;;1.27;;
4517;SDS011;2271;49.464;11.070;2023-04-24T09:07:41;2.50;;;1.58;;
4517;SDS011;2271;49.464;11.070;2023-04-24T09:10:14;1.70;;;1.52;;
4517;SDS011;2271;49.464;11.070;2023-04-24T09:12:41;2.40;;;1.83;;
4517;SDS011;2271;49.464;11.070;2023-04-24T09:15:09;2.42;;;1.40;;
4517;SDS011;2271;49.464;11.070;2023-04-24T09:17:35;2.15;;;1.58;;
4517;SDS011;2271;49.464;11.070;2023-04-24T09:22:32;1.95;;;1.38;;
4517;SDS011;2271;49.464;11.070;2023-04-24T09:25:04;1.75;;;1.38;;
4517;SDS011;2271;49.464;11.070;2023-04-24T09:27:32;1.48;;;1.20;;
4517;SDS011;2271;49.464;11.070;2023-04-24T09:29:59;3.33;;;1.40;;
4517;SDS011;2271;49.464;11.070;2023-04-24T09:32:25;1.52;;;1.25;;
4517;SDS011;2271;49.464;11.070;2023-04-24T09:35:05;2.25;;;1.40;;
4517;SDS011;2271;49.464;11.070;2023-04-24T09:37:36;1.55;;;1.33;;
4517;SDS011;2271;49.464;11.070;2023-04-24T09:40:07;5.18;;;1.58;;
4517;SDS011;2271;49.464;11.070;2023-04-24T09:42:32;1.27;;;1.20;;
4517;SDS011;2271;49.464;11.070;2023-04-24T09:44:58;2.97;;;1.10;;
4517;SDS011;2271;49.464;11.070;2023-04-24T09:47:24;1.58;;;1.25;;
4517;SDS011;2271;49.464;11.070;2023-04-24T09:49:50;4.95;;;1.10;;
4517;SDS011;2271;49.464;11.070;2023-04-24T09:52:15;2.15;;;1.50;;
4517;SDS011;2271;49.464;11.070;2023-04-24T09:54:41;1.25;;;1.10;;
4517;SDS011;2271;49.464;11.070;2023-04-24T09:57:09;1.23;;;1.00;;
4517;SDS011;2271;49.464;11.070;2023-04-24T09:59:35;9.05;;;1.40;;
4517;SDS011;2271;49.464;11.070;2023-04-24T10:02:16;1.00;;;1.00;;
4517;SDS011;2271;49.464;11.070;2023-04-24T10:04:53;1.30;;;1.10;;
4517;SDS011;2271;49.464;11.070;2023-04-24T10:07:27;0.60;;;0.60;;
4517;SDS011;2271;49.464;11.070;2023-04-24T10:09:53;1.58;;;1.08;;
4517;SDS011;2271;49.464;11.070;2023-04-24T10:12:19;3.38;;;1.48;;
4517;SDS011;2271;49.464;11.070;2023-04-24T10:14:46;2.42;;;1.30;;
4517;SDS011;2271;49.464;11.070;2023-04-24T10:17:11;2.72;;;0.73;;
4517;SDS011;2271;49.464;11.070;2023-04-24T10:19:39;2.13;;;1.00;;
4517;SDS011;2271;49.464;11.070;2023-04-24T10:22:07;2.63;;;0.90;;
4517;SDS011;2271;49.464;11.070;2023-04-24T10:24:33;1.35;;;0.80;;
4517;SDS011;2271;49.464;11.070;2023-04-24T10:27:01;1.65;;;0.90;;
4517;SDS011;2271;49.464;11.070;2023-04-24T10:29:27;1.08;;;0.70;;
4517;SDS011;2271;49.464;11.070;2023-04-24T10:31:56;0.88;;;0.70;;
4517;SDS011;2271;49.464;11.070;2023-04-24T10:34:22;1.38;;;0.85;;
4517;SDS011;2271;49.464;11.070;2023-04-24T10:36:50;0.63;;;0.60;;
4517;SDS011;2271;49.464;11.070;2023-04-24T10:39:17;1.92;;;0.88;;
4517;SDS011;2271;49.464;11.070;2023-04-24T10:41:46;1.80;;;0.68;;
4517;SDS011;2271;49.464;11.070;2023-04-24T10:44:14;1.13;;;0.75;;
4517;SDS011;2271;49.464;11.070;2023-04-24T10:46:46;1.70;;;0.70;;
4517;SDS011;2271;49.464;11.070;2023-04-24T10:49:17;1.75;;;0.98;;
4517;SDS011;2271;49.464;11.070;2023-04-24T10:51:59;1.67;;;0.90;;
4517;SDS011;2271;49.464;11.070;2023-04-24T10:54:36;2.15;;;0.93;;
4517;SDS011;2271;49.464;11.070;2023-04-24T10:59:47;1.17;;;0.90;;
4517;SDS011;2271;49.464;11.070;2023-04-24T11:02:37;0.60;;;0.60;;
4517;SDS011;2271;49.464;11.070;2023-04-24T11:05:04;0.75;;;0.63;;
4517;SDS011;2271;49.464;11.070;2023-04-24T11:07:30;1.10;;;0.65;;
4517;SDS011;2271;49.464;11.070;2023-04-24T11:10:37;0.70;;;0.70;;
4517;SDS011;2271;49.464;11.070;2023-04-24T11:13:03;0.80;;;0.63;;
4517;SDS011;2271;49.464;11.070;2023-04-24T11:15:29;0.93;;;0.60;;
4517;SDS011;2271;49.464;11.070;2023-04-24T11:17:55;1.58;;;1.48;;
4517;SDS011;2271;49.464;11.070;2023-04-24T11:20:22;0.98;;;0.90;;
4517;SDS011;2271;49.464;11.070;2023-04-24T11:22:52;1.63;;;0.90;;
4517;SDS011;2271;49.464;11.070;2023-04-24T11:25:19;1.25;;;1.00;;
4517;SDS011;2271;49.464;11.070;2023-04-24T11:27:47;0.77;;;0.77;;
4517;SDS011;2271;49.464;11.070;2023-04-24T11:30:18;3.50;;;1.10;;
4517;SDS011;2271;49.464;11.070;2023-04-24T11:32:48;5.18;;;1.10;;
4517;SDS011;2271;49.464;11.070;2023-04-24T11:37:50;1.70;;;1.00;;
4517;SDS011;2271;49.464;11.070;2023-04-24T11:40:20;2.78;;;1.58;;
4517;SDS011;2271;49.464;11.070;2023-04-24T11:42:51;1.52;;;1.30;;
4517;SDS011;2271;49.464;11.070;2023-04-24T11:45:18;1.83;;;1.02;;
4517;SDS011;2271;49.464;11.070;2023-04-24T11:47:48;1.05;;;1.00;;
4517;SDS011;2271;49.464;11.070;2023-04-24T11:50:15;1.23;;;1.13;;
4517;SDS011;2271;49.464;11.070;2023-04-24T11:52:44;1.60;;;1.17;;
4517;SDS011;2271;49.464;11.070;2023-04-24T11:57:41;3.75;;;0.98;;
4517;SDS011;2271;49.464;11.070;2023-04-24T12:00:14;5.70;;;1.48;;
4517;SDS011;2271;49.464;11.070;2023-04-24T12:02:45;1.23;;;1.13;;
4517;SDS011;2271;49.464;11.070;2023-04-24T12:05:21;1.13;;;0.75;;
4517;SDS011;2271;49.464;11.070;2023-04-24T12:07:53;1.10;;;0.90;;
4517;SDS011;2271;49.464;11.070;2023-04-24T12:10:20;1.23;;;1.10;;
4517;SDS011;2271;49.464;11.070;2023-04-24T12:12:46;1.38;;;1.00;;
4517;SDS011;2271;49.464;11.070;2023-04-24T12:15:15;4.03;;;1.10;;
4517;SDS011;2271;49.464;11.070;2023-04-24T12:17:41;1.15;;;0.88;;
4517;SDS011;2271;49.464;11.070;2023-04-24T12:20:08;3.03;;;1.27;;
4517;SDS011;2271;49.464;11.070;2023-04-24T12:22:47;1.40;;;1.30;;
4517;SDS011;2271;49.464;11.070;2023-04-24T12:25:19;1.05;;;0.95;;
4517;SDS011;2271;49.464;11.070;2023-04-24T12:27:46;0.90;;;0.90;;
4517;SDS011;2271;49.464;11.070;2023-04-24T12:30:17;1.42;;;1.33;;
4517;SDS011;2271;49.464;11.070;2023-04-24T12:32:47;1.77;;;1.17;;
4517;SDS011;2271;49.464;11.070;2023-04-24T12:35:14;2.03;;;1.15;;
4517;SDS011;2271;49.464;11.070;2023-04-24T12:37:47;1.23;;;0.90;;
4517;SDS011;2271;49.464;11.070;2023-04-24T12:40:13;1.83;;;0.95;;
4517;SDS011;2271;49.464;11.070;2023-04-24T12:42:42;1.23;;;1.00;;
4517;SDS011;2271;49.464;11.070;2023-04-24T12:45:16;1.02;;;0.70;;
4517;SDS011;2271;49.464;11.070;2023-04-24T12:47:44;0.75;;;0.75;;
4517;SDS011;2271;49.464;11.070;2023-04-24T12:50:11;1.25;;;1.05;;
4517;SDS011;2271;49.464;11.070;2023-04-24T12:52:38;0.65;;;0.65;;
4517;SDS011;2271;49.464;11.070;2023-04-24T12:55:05;0.70;;;0.70;;
4517;SDS011;2271;49.464;11.070;2023-04-24T12:57:33;0.93;;;0.93;;
4517;SDS011;2271;49.464;11.070;2023-04-24T12:59:59;1.45;;;0.90;;
4517;SDS011;2271;49.464;11.070;2023-04-24T13:02:26;1.08;;;0.82;;
4517;SDS011;2271;49.464;11.070;2023-04-24T13:04:54;1.27;;;0.90;;
4517;SDS011;2271;49.464;11.070;2023-04-24T13:07:20;0.60;;;0.60;;
4517;SDS011;2271;49.464;11.070;2023-04-24T13:09:47;1.65;;;0.98;;
4517;SDS011;2271;49.464;11.070;2023-04-24T13:12:13;0.75;;;0.73;;
4517;SDS011;2271;49.464;11.070;2023-04-24T13:14:39;0.70;;;0.70;;
4517;SDS011;2271;49.464;11.070;2023-04-24T13:17:04;1.13;;;0.80;;
4517;SDS011;2271;49.464;11.070;2023-04-24T13:19:35;0.60;;;0.60;;
4517;SDS011;2271;49.464;11.070;2023-04-24T13:22:05;1.27;;;0.73;;
4517;SDS011;2271;49.464;11.070;2023-04-24T13:24:32;0.70;;;0.70;;
4517;SDS011;2271;49.464;11.070;2023-04-24T13:26:58;2.45;;;1.20;;
4517;SDS011;2271;49.464;11.070;2023-04-24T13:29:25;1.23;;;1.13;;
4517;SDS011;2271;49.464;11.070;2023-04-24T13:31:51;3.60;;;1.20;;
4517;SDS011;2271;49.464;11.070;2023-04-24T13:34:19;1.23;;;1.02;;
4517;SDS011;2271;49.464;11.070;2023-04-24T13:36:45;1.63;;;0.93;;
4517;SDS011;2271;49.464;11.070;2023-04-24T13:39:11;0.95;;;0.88;;
4517;SDS011;2271;49.464;11.070;2023-04-24T13:41:37;1.30;;;1.20;;
4517;SDS011;2271;49.464;11.070;2023-04-24T13:44:03;1.70;;;1.00;;
4517;SDS011;2271;49.464;11.070;2023-04-24T13:46:29;1.55;;;1.30;;
4517;SDS011;2271;49.464;11.070;2023-04-24T13:48:56;4.85;;;1.23;;
4517;SDS011;2271;49.464;11.070;2023-04-24T13:51:22;3.45;;;1.80;;
4517;SDS011;2271;49.464;11.070;2023-04-24T13:53:48;1.27;;;1.02;;
4517;SDS011;2271;49.464;11.070;2023-04-24T13:56:14;1.00;;;0.90;;
4517;SDS011;2271;49.464;11.070;2023-04-24T13:58:40;1.80;;;1.33;;
4517;SDS011;2271;49.464;11.070;2023-04-24T14:01:05;1.58;;;1.42;;
4517;SDS011;2271;49.464;11.070;2023-04-24T14:03:32;7.60;;;2.00;;
4517;SDS011;2271;49.464;11.070;2023-04-24T14:05:58;4.28;;;1.40;;
4517;SDS011;2271;49.464;11.070;2023-04-24T14:08:24;3.15;;;1.45;;
4517;SDS011;2271;49.464;11.070;2023-04-24T14:10:50;3.08;;;1.67;;
4517;SDS011;2271;49.464;11.070;2023-04-24T14:13:16;2.05;;;1.10;;
4517;SDS011;2271;49.464;11.070;2023-04-24T14:15:42;3.03;;;1.10;;
4517;SDS011;2271;49.464;11.070;2023-04-24T14:18:07;1.70;;;1.10;;
4517;SDS011;2271;49.464;11.070;2023-04-24T14:20:33;1.10;;;1.00;;
4517;SDS011;2271;49.464;11.070;2023-04-24T14:22:59;1.40;;;1.30;;
4517;SDS011;2271;49.464;11.070;2023-04-24T14:25:25;2.15;;;1.20;;
4517;SDS011;2271;49.464;11.070;2023-04-24T14:27:51;2.15;;;1.35;;
4517;SDS011;2271;49.464;11.070;2023-04-24T14:30:16;1.67;;;1.30;;
4517;SDS011;2271;49.464;11.070;2023-04-24T14:32:42;2.05;;;1.23;;
4517;SDS011;2271;49.464;11.070;2023-04-24T14:35:08;3.53;;;1.38;;
4517;SDS011;2271;49.464;11.070;2023-04-24T14:37:34;1.50;;;1.40;;
4517;SDS011;2271;49.464;11.070;2023-04-24T14:40:01;1.58;;;1.08;;
4517;SDS011;2271;49.464;11.070;2023-04-24T14:42:26;2.70;;;1.38;;
4517;SDS011;2271;49.464;11.070;2023-04-24T14:44:53;1.70;;;1.60;;
4517;SDS011;2271;49.464;11.070;2023-04-24T14:47:19;1.33;;;1.23;;
4517;SDS011;2271;49.464;11.070;2023-04-24T14:49:46;1.48;;;1.33;;
4517;SDS011;2271;49.464;11.070;2023-04-24T14:52:13;1.58;;;1.10;;
4517;SDS011;2271;49.464;11.070;2023-04-24T14:54:38;2.10;;;1.10;;
4517;SDS011;2271;49.464;11.070;2023-04-24T14:57:04;1.75;;;1.40;;
4517;SDS011;2271;49.464;11.070;2023-04-24T14:59:30;1.38;;;1.20;;
4517;SDS011;2271;49.464;11.070;2023-04-24T15:01:56;0.95;;;0.95;;
4517;SDS011;2271;49.464;11.070;2023-04-24T15:04:25;1.65;;;0.70;;
4517;SDS011;2271;49.464;11.070;2023-04-24T15:06:52;1.40;;;1.30;;
4517;SDS011;2271;49.464;11.070;2023-04-24T15:09:21;1.60;;;1.00;;